FCO weather

Public forecast

Using degrees Celsius for public forecast. Weather courtesy of forecast.io.

Current aviation weather report (METAR) for Leonardo da Vinci–Fiumicino Airport

Retrieved 2020/08/10 10:50 UTC (12 minutes ago):

LIRF 101050Z 19009KT CAVOK 32/20 Q1013 NOSIG

Aviation forecast (TAF) for Leonardo da Vinci–Fiumicino Airport

Retrieved 2020/08/10 06:26 UTC (5 hours ago):

TAF LIRF 100500Z 1006/1112 VRB04KT 9999 SCT030 BECMG 1008/1010 25010KT BECMG 1017/1019 VRB05KT BECMG 1108/1110 25010KT